sensor_id;sensor_type;location;lat;lon;timestamp;P1;durP1;ratioP1;P2;durP2;ratioP2
8100;SDS011;4093;53.470;9.832;2023-02-10T00:01:35;53.77;;;26.13;;
8100;SDS011;4093;53.470;9.832;2023-02-10T00:04:03;54.60;;;27.50;;
8100;SDS011;4093;53.470;9.832;2023-02-10T00:06:32;56.87;;;28.07;;
8100;SDS011;4093;53.470;9.832;2023-02-10T00:09:01;60.17;;;28.53;;
8100;SDS011;4093;53.470;9.832;2023-02-10T00:11:30;52.50;;;26.77;;
8100;SDS011;4093;53.470;9.832;2023-02-10T00:14:16;60.43;;;27.17;;
8100;SDS011;4093;53.470;9.832;2023-02-10T00:16:45;58.00;;;28.67;;
8100;SDS011;4093;53.470;9.832;2023-02-10T00:19:13;55.07;;;28.67;;
8100;SDS011;4093;53.470;9.832;2023-02-10T00:21:41;58.77;;;27.27;;
8100;SDS011;4093;53.470;9.832;2023-02-10T00:24:10;64.27;;;27.77;;
8100;SDS011;4093;53.470;9.832;2023-02-10T00:26:38;63.07;;;27.03;;
8100;SDS011;4093;53.470;9.832;2023-02-10T00:29:06;57.57;;;29.17;;
8100;SDS011;4093;53.470;9.832;2023-02-10T00:31:33;60.37;;;28.23;;
8100;SDS011;4093;53.470;9.832;2023-02-10T00:34:01;54.53;;;29.30;;
8100;SDS011;4093;53.470;9.832;2023-02-10T00:36:29;56.07;;;26.83;;
8100;SDS011;4093;53.470;9.832;2023-02-10T00:38:57;53.70;;;26.97;;
8100;SDS011;4093;53.470;9.832;2023-02-10T00:41:26;61.03;;;27.50;;
8100;SDS011;4093;53.470;9.832;2023-02-10T00:43:54;51.77;;;27.13;;
8100;SDS011;4093;53.470;9.832;2023-02-10T00:46:22;57.87;;;26.90;;
8100;SDS011;4093;53.470;9.832;2023-02-10T00:48:50;49.77;;;26.70;;
8100;SDS011;4093;53.470;9.832;2023-02-10T00:51:18;56.57;;;26.50;;
8100;SDS011;4093;53.470;9.832;2023-02-10T00:53:46;59.93;;;27.13;;
8100;SDS011;4093;53.470;9.832;2023-02-10T00:56:16;51.60;;;26.20;;
8100;SDS011;4093;53.470;9.832;2023-02-10T00:58:47;45.67;;;25.30;;
8100;SDS011;4093;53.470;9.832;2023-02-10T01:01:15;52.60;;;26.80;;
8100;SDS011;4093;53.470;9.832;2023-02-10T01:03:43;53.10;;;27.57;;
8100;SDS011;4093;53.470;9.832;2023-02-10T01:06:12;50.63;;;26.13;;
8100;SDS011;4093;53.470;9.832;2023-02-10T01:08:40;51.23;;;26.20;;
8100;SDS011;4093;53.470;9.832;2023-02-10T01:11:10;47.37;;;24.57;;
8100;SDS011;4093;53.470;9.832;2023-02-10T01:13:39;47.13;;;24.63;;
8100;SDS011;4093;53.470;9.832;2023-02-10T01:16:10;52.57;;;26.13;;
8100;SDS011;4093;53.470;9.832;2023-02-10T01:18:41;55.43;;;26.10;;
8100;SDS011;4093;53.470;9.832;2023-02-10T01:21:09;63.47;;;28.23;;
8100;SDS011;4093;53.470;9.832;2023-02-10T01:23:39;57.73;;;27.30;;
8100;SDS011;4093;53.470;9.832;2023-02-10T01:26:07;50.53;;;26.87;;
8100;SDS011;4093;53.470;9.832;2023-02-10T01:28:36;48.67;;;25.63;;
8100;SDS011;4093;53.470;9.832;2023-02-10T01:31:05;57.70;;;26.83;;
8100;SDS011;4093;53.470;9.832;2023-02-10T01:33:35;48.60;;;25.37;;
8100;SDS011;4093;53.470;9.832;2023-02-10T01:36:03;52.53;;;25.40;;
8100;SDS011;4093;53.470;9.832;2023-02-10T01:38:32;56.57;;;24.67;;
8100;SDS011;4093;53.470;9.832;2023-02-10T01:41:00;45.20;;;24.10;;
8100;SDS011;4093;53.470;9.832;2023-02-10T01:43:28;46.10;;;24.33;;
8100;SDS011;4093;53.470;9.832;2023-02-10T01:45:56;53.67;;;24.57;;
8100;SDS011;4093;53.470;9.832;2023-02-10T01:48:24;43.83;;;22.90;;
8100;SDS011;4093;53.470;9.832;2023-02-10T01:50:54;47.60;;;22.73;;
8100;SDS011;4093;53.470;9.832;2023-02-10T01:53:27;45.43;;;22.17;;
8100;SDS011;4093;53.470;9.832;2023-02-10T01:55:56;53.23;;;24.50;;
8100;SDS011;4093;53.470;9.832;2023-02-10T01:58:29;50.53;;;21.90;;
8100;SDS011;4093;53.470;9.832;2023-02-10T02:00:59;52.83;;;22.60;;
8100;SDS011;4093;53.470;9.832;2023-02-10T02:03:28;49.87;;;23.63;;
8100;SDS011;4093;53.470;9.832;2023-02-10T02:05:58;46.87;;;22.37;;
8100;SDS011;4093;53.470;9.832;2023-02-10T02:08:26;45.00;;;22.90;;
8100;SDS011;4093;53.470;9.832;2023-02-10T02:11:05;48.07;;;23.03;;
8100;SDS011;4093;53.470;9.832;2023-02-10T02:13:47;48.10;;;22.43;;
8100;SDS011;4093;53.470;9.832;2023-02-10T02:16:38;47.20;;;21.60;;
8100;SDS011;4093;53.470;9.832;2023-02-10T02:19:32;48.23;;;22.53;;
8100;SDS011;4093;53.470;9.832;2023-02-10T02:23:02;40.40;;;21.57;;
8100;SDS011;4093;53.470;9.832;2023-02-10T02:25:42;46.70;;;22.30;;
8100;SDS011;4093;53.470;9.832;2023-02-10T02:28:23;54.37;;;22.77;;
8100;SDS011;4093;53.470;9.832;2023-02-10T02:31:06;44.43;;;23.50;;
8100;SDS011;4093;53.470;9.832;2023-02-10T02:33:48;46.47;;;22.33;;
8100;SDS011;4093;53.470;9.832;2023-02-10T02:36:19;51.93;;;22.67;;
8100;SDS011;4093;53.470;9.832;2023-02-10T02:38:51;53.83;;;22.90;;
8100;SDS011;4093;53.470;9.832;2023-02-10T02:41:22;41.73;;;21.33;;
8100;SDS011;4093;53.470;9.832;2023-02-10T02:43:51;44.87;;;21.33;;
8100;SDS011;4093;53.470;9.832;2023-02-10T02:46:22;48.13;;;22.80;;
8100;SDS011;4093;53.470;9.832;2023-02-10T02:48:58;44.73;;;22.43;;
8100;SDS011;4093;53.470;9.832;2023-02-10T02:51:39;49.37;;;21.93;;
8100;SDS011;4093;53.470;9.832;2023-02-10T02:54:14;48.00;;;22.47;;
8100;SDS011;4093;53.470;9.832;2023-02-10T02:56:49;44.20;;;21.47;;
8100;SDS011;4093;53.470;9.832;2023-02-10T02:59:22;49.43;;;21.23;;
8100;SDS011;4093;53.470;9.832;2023-02-10T03:01:57;53.10;;;24.60;;
8100;SDS011;4093;53.470;9.832;2023-02-10T03:04:30;45.80;;;23.23;;
8100;SDS011;4093;53.470;9.832;2023-02-10T03:07:00;46.80;;;25.63;;
8100;SDS011;4093;53.470;9.832;2023-02-10T03:09:27;46.77;;;24.37;;
8100;SDS011;4093;53.470;9.832;2023-02-10T03:11:56;45.50;;;24.27;;
8100;SDS011;4093;53.470;9.832;2023-02-10T03:14:24;46.80;;;22.50;;
8100;SDS011;4093;53.470;9.832;2023-02-10T03:16:52;47.20;;;24.23;;
8100;SDS011;4093;53.470;9.832;2023-02-10T03:19:20;44.93;;;23.70;;
8100;SDS011;4093;53.470;9.832;2023-02-10T03:21:49;44.00;;;24.50;;
8100;SDS011;4093;53.470;9.832;2023-02-10T03:24:17;48.50;;;24.27;;
8100;SDS011;4093;53.470;9.832;2023-02-10T03:26:45;46.17;;;23.10;;
8100;SDS011;4093;53.470;9.832;2023-02-10T03:29:13;51.70;;;25.07;;
8100;SDS011;4093;53.470;9.832;2023-02-10T03:31:41;45.67;;;23.83;;
8100;SDS011;4093;53.470;9.832;2023-02-10T03:34:10;45.03;;;23.27;;
8100;SDS011;4093;53.470;9.832;2023-02-10T03:36:38;40.87;;;23.23;;
8100;SDS011;4093;53.470;9.832;2023-02-10T03:39:07;47.83;;;25.20;;
8100;SDS011;4093;53.470;9.832;2023-02-10T03:41:35;50.77;;;24.93;;
8100;SDS011;4093;53.470;9.832;2023-02-10T03:44:03;49.40;;;24.83;;
8100;SDS011;4093;53.470;9.832;2023-02-10T03:46:31;47.17;;;24.90;;
8100;SDS011;4093;53.470;9.832;2023-02-10T03:48:58;45.23;;;24.10;;
8100;SDS011;4093;53.470;9.832;2023-02-10T03:51:26;53.13;;;25.43;;
8100;SDS011;4093;53.470;9.832;2023-02-10T03:53:54;50.50;;;24.40;;
8100;SDS011;4093;53.470;9.832;2023-02-10T03:56:23;50.87;;;25.90;;
8100;SDS011;4093;53.470;9.832;2023-02-10T03:58:51;52.60;;;26.20;;
8100;SDS011;4093;53.470;9.832;2023-02-10T04:01:19;49.00;;;26.20;;
8100;SDS011;4093;53.470;9.832;2023-02-10T04:03:46;52.23;;;25.93;;
8100;SDS011;4093;53.470;9.832;2023-02-10T04:06:14;55.27;;;25.73;;
8100;SDS011;4093;53.470;9.832;2023-02-10T04:08:42;49.23;;;24.73;;
8100;SDS011;4093;53.470;9.832;2023-02-10T04:11:10;53.70;;;27.57;;
8100;SDS011;4093;53.470;9.832;2023-02-10T04:13:40;51.33;;;25.03;;
8100;SDS011;4093;53.470;9.832;2023-02-10T04:16:09;51.43;;;24.60;;
8100;SDS011;4093;53.470;9.832;2023-02-10T04:18:39;52.97;;;24.60;;
8100;SDS011;4093;53.470;9.832;2023-02-10T04:21:08;46.50;;;24.90;;
8100;SDS011;4093;53.470;9.832;2023-02-10T04:23:37;59.13;;;26.00;;
8100;SDS011;4093;53.470;9.832;2023-02-10T04:26:05;54.13;;;25.23;;
8100;SDS011;4093;53.470;9.832;2023-02-10T04:28:33;53.83;;;26.53;;
8100;SDS011;4093;53.470;9.832;2023-02-10T04:31:02;51.10;;;23.77;;
8100;SDS011;4093;53.470;9.832;2023-02-10T04:33:31;56.70;;;25.10;;
8100;SDS011;4093;53.470;9.832;2023-02-10T04:35:59;47.07;;;25.83;;
8100;SDS011;4093;53.470;9.832;2023-02-10T04:38:29;57.17;;;25.47;;
8100;SDS011;4093;53.470;9.832;2023-02-10T04:40:57;45.37;;;24.87;;
8100;SDS011;4093;53.470;9.832;2023-02-10T04:43:25;51.33;;;25.20;;
8100;SDS011;4093;53.470;9.832;2023-02-10T04:45:52;49.70;;;25.17;;
8100;SDS011;4093;53.470;9.832;2023-02-10T04:48:22;58.27;;;24.23;;
8100;SDS011;4093;53.470;9.832;2023-02-10T04:50:50;58.47;;;25.97;;
8100;SDS011;4093;53.470;9.832;2023-02-10T04:53:19;47.37;;;23.53;;
8100;SDS011;4093;53.470;9.832;2023-02-10T04:55:47;44.20;;;23.50;;
8100;SDS011;4093;53.470;9.832;2023-02-10T04:58:15;50.43;;;24.87;;
8100;SDS011;4093;53.470;9.832;2023-02-10T05:00:44;52.70;;;24.00;;
8100;SDS011;4093;53.470;9.832;2023-02-10T05:03:12;46.53;;;23.87;;
8100;SDS011;4093;53.470;9.832;2023-02-10T05:05:41;57.80;;;25.47;;
8100;SDS011;4093;53.470;9.832;2023-02-10T05:08:09;44.53;;;24.43;;
8100;SDS011;4093;53.470;9.832;2023-02-10T05:10:37;47.87;;;23.90;;
8100;SDS011;4093;53.470;9.832;2023-02-10T05:13:08;50.40;;;24.87;;
8100;SDS011;4093;53.470;9.832;2023-02-10T05:15:36;51.73;;;24.47;;
8100;SDS011;4093;53.470;9.832;2023-02-10T05:18:03;50.23;;;24.33;;
8100;SDS011;4093;53.470;9.832;2023-02-10T05:20:32;51.60;;;24.90;;
8100;SDS011;4093;53.470;9.832;2023-02-10T05:23:01;51.07;;;25.30;;
8100;SDS011;4093;53.470;9.832;2023-02-10T05:25:29;55.13;;;25.53;;
8100;SDS011;4093;53.470;9.832;2023-02-10T05:27:57;51.63;;;25.27;;
8100;SDS011;4093;53.470;9.832;2023-02-10T05:30:25;54.53;;;25.83;;
8100;SDS011;4093;53.470;9.832;2023-02-10T05:32:52;57.17;;;26.73;;
8100;SDS011;4093;53.470;9.832;2023-02-10T05:35:20;55.73;;;26.83;;
8100;SDS011;4093;53.470;9.832;2023-02-10T05:37:48;49.77;;;26.87;;
8100;SDS011;4093;53.470;9.832;2023-02-10T05:40:18;62.37;;;28.77;;
8100;SDS011;4093;53.470;9.832;2023-02-10T05:42:45;48.57;;;25.73;;
8100;SDS011;4093;53.470;9.832;2023-02-10T05:45:13;62.47;;;26.87;;
8100;SDS011;4093;53.470;9.832;2023-02-10T05:47:41;62.23;;;28.53;;
8100;SDS011;4093;53.470;9.832;2023-02-10T05:50:09;64.23;;;29.37;;
8100;SDS011;4093;53.470;9.832;2023-02-10T05:52:37;56.83;;;29.03;;
8100;SDS011;4093;53.470;9.832;2023-02-10T05:55:06;56.13;;;29.13;;
8100;SDS011;4093;53.470;9.832;2023-02-10T05:57:35;57.17;;;28.77;;
8100;SDS011;4093;53.470;9.832;2023-02-10T06:00:03;62.43;;;29.47;;
8100;SDS011;4093;53.470;9.832;2023-02-10T06:02:33;62.20;;;28.60;;
8100;SDS011;4093;53.470;9.832;2023-02-10T06:05:01;54.20;;;28.53;;
8100;SDS011;4093;53.470;9.832;2023-02-10T06:07:29;59.87;;;28.17;;
8100;SDS011;4093;53.470;9.832;2023-02-10T06:09:57;62.03;;;28.23;;
8100;SDS011;4093;53.470;9.832;2023-02-10T06:12:25;55.37;;;28.93;;
8100;SDS011;4093;53.470;9.832;2023-02-10T06:14:54;56.00;;;27.07;;
8100;SDS011;4093;53.470;9.832;2023-02-10T06:17:21;60.43;;;29.23;;
8100;SDS011;4093;53.470;9.832;2023-02-10T06:19:49;56.00;;;28.83;;
8100;SDS011;4093;53.470;9.832;2023-02-10T06:22:17;57.87;;;29.93;;
8100;SDS011;4093;53.470;9.832;2023-02-10T06:24:45;67.07;;;29.47;;
8100;SDS011;4093;53.470;9.832;2023-02-10T06:27:12;56.40;;;28.10;;
8100;SDS011;4093;53.470;9.832;2023-02-10T06:29:40;55.73;;;27.00;;
8100;SDS011;4093;53.470;9.832;2023-02-10T06:32:10;64.83;;;28.57;;
8100;SDS011;4093;53.470;9.832;2023-02-10T06:34:37;64.20;;;29.87;;
8100;SDS011;4093;53.470;9.832;2023-02-10T06:37:06;61.20;;;28.00;;
8100;SDS011;4093;53.470;9.832;2023-02-10T06:39:34;65.70;;;29.63;;
8100;SDS011;4093;53.470;9.832;2023-02-10T06:42:02;61.47;;;29.20;;
8100;SDS011;4093;53.470;9.832;2023-02-10T06:44:30;63.73;;;27.10;;
8100;SDS011;4093;53.470;9.832;2023-02-10T06:46:57;65.17;;;29.10;;
8100;SDS011;4093;53.470;9.832;2023-02-10T06:49:26;70.03;;;29.97;;
8100;SDS011;4093;53.470;9.832;2023-02-10T06:51:54;58.70;;;29.00;;
8100;SDS011;4093;53.470;9.832;2023-02-10T06:54:22;61.47;;;30.73;;
8100;SDS011;4093;53.470;9.832;2023-02-10T06:56:50;64.27;;;29.70;;
8100;SDS011;4093;53.470;9.832;2023-02-10T06:59:18;62.50;;;29.03;;
8100;SDS011;4093;53.470;9.832;2023-02-10T07:01:46;64.30;;;29.77;;
8100;SDS011;4093;53.470;9.832;2023-02-10T07:04:14;59.63;;;28.53;;
8100;SDS011;4093;53.470;9.832;2023-02-10T07:06:43;60.13;;;29.13;;
8100;SDS011;4093;53.470;9.832;2023-02-10T07:09:11;62.40;;;30.27;;
8100;SDS011;4093;53.470;9.832;2023-02-10T07:11:39;61.70;;;29.73;;
8100;SDS011;4093;53.470;9.832;2023-02-10T07:14:06;66.20;;;31.20;;
8100;SDS011;4093;53.470;9.832;2023-02-10T07:16:34;77.10;;;31.43;;
8100;SDS011;4093;53.470;9.832;2023-02-10T07:19:02;60.43;;;32.70;;
8100;SDS011;4093;53.470;9.832;2023-02-10T07:21:30;68.23;;;35.87;;
8100;SDS011;4093;53.470;9.832;2023-02-10T07:23:59;120.07;;;62.80;;
8100;SDS011;4093;53.470;9.832;2023-02-10T07:26:27;77.87;;;33.07;;
8100;SDS011;4093;53.470;9.832;2023-02-10T07:28:55;86.33;;;45.53;;
8100;SDS011;4093;53.470;9.832;2023-02-10T07:31:23;67.47;;;33.13;;
8100;SDS011;4093;53.470;9.832;2023-02-10T07:33:51;62.17;;;29.13;;
8100;SDS011;4093;53.470;9.832;2023-02-10T07:36:19;64.77;;;32.07;;
8100;SDS011;4093;53.470;9.832;2023-02-10T07:38:47;66.70;;;30.77;;
8100;SDS011;4093;53.470;9.832;2023-02-10T07:41:16;57.67;;;30.60;;
8100;SDS011;4093;53.470;9.832;2023-02-10T07:43:45;66.57;;;30.83;;
8100;SDS011;4093;53.470;9.832;2023-02-10T07:46:13;69.13;;;32.00;;
8100;SDS011;4093;53.470;9.832;2023-02-10T07:48:41;71.77;;;32.10;;
8100;SDS011;4093;53.470;9.832;2023-02-10T07:51:09;53.30;;;29.97;;
8100;SDS011;4093;53.470;9.832;2023-02-10T07:53:37;68.50;;;30.43;;
8100;SDS011;4093;53.470;9.832;2023-02-10T07:56:05;61.70;;;29.93;;
8100;SDS011;4093;53.470;9.832;2023-02-10T07:58:35;72.73;;;31.50;;
8100;SDS011;4093;53.470;9.832;2023-02-10T08:01:05;62.97;;;29.40;;
8100;SDS011;4093;53.470;9.832;2023-02-10T08:03:34;68.93;;;29.13;;
8100;SDS011;4093;53.470;9.832;2023-02-10T08:06:01;62.23;;;28.73;;
8100;SDS011;4093;53.470;9.832;2023-02-10T08:08:30;60.90;;;29.03;;
8100;SDS011;4093;53.470;9.832;2023-02-10T08:10:57;68.20;;;29.10;;
8100;SDS011;4093;53.470;9.832;2023-02-10T08:13:25;55.03;;;27.87;;
8100;SDS011;4093;53.470;9.832;2023-02-10T08:15:56;60.73;;;28.10;;
8100;SDS011;4093;53.470;9.832;2023-02-10T08:18:24;63.80;;;27.53;;
8100;SDS011;4093;53.470;9.832;2023-02-10T08:20:52;50.60;;;29.57;;
8100;SDS011;4093;53.470;9.832;2023-02-10T08:23:20;68.33;;;28.73;;
8100;SDS011;4093;53.470;9.832;2023-02-10T08:25:48;58.93;;;30.17;;
8100;SDS011;4093;53.470;9.832;2023-02-10T08:28:17;61.83;;;29.37;;
8100;SDS011;4093;53.470;9.832;2023-02-10T08:30:45;65.53;;;30.07;;
8100;SDS011;4093;53.470;9.832;2023-02-10T08:33:14;65.90;;;29.73;;
8100;SDS011;4093;53.470;9.832;2023-02-10T08:35:42;62.17;;;29.23;;
8100;SDS011;4093;53.470;9.832;2023-02-10T08:38:10;63.77;;;29.53;;
8100;SDS011;4093;53.470;9.832;2023-02-10T08:40:38;66.10;;;29.63;;
8100;SDS011;4093;53.470;9.832;2023-02-10T08:43:05;67.40;;;30.10;;
8100;SDS011;4093;53.470;9.832;2023-02-10T08:45:33;68.97;;;32.50;;
8100;SDS011;4093;53.470;9.832;2023-02-10T08:48:02;61.37;;;32.07;;
8100;SDS011;4093;53.470;9.832;2023-02-10T08:50:31;76.10;;;35.10;;
8100;SDS011;4093;53.470;9.832;2023-02-10T08:52:59;68.93;;;34.77;;
8100;SDS011;4093;53.470;9.832;2023-02-10T08:55:27;82.53;;;38.03;;
8100;SDS011;4093;53.470;9.832;2023-02-10T08:57:54;72.70;;;32.37;;
8100;SDS011;4093;53.470;9.832;2023-02-10T09:00:22;92.03;;;39.37;;
8100;SDS011;4093;53.470;9.832;2023-02-10T09:02:50;84.87;;;41.87;;
8100;SDS011;4093;53.470;9.832;2023-02-10T09:05:18;69.73;;;33.00;;
8100;SDS011;4093;53.470;9.832;2023-02-10T09:07:47;62.57;;;31.07;;
8100;SDS011;4093;53.470;9.832;2023-02-10T09:10:15;57.57;;;30.97;;
8100;SDS011;4093;53.470;9.832;2023-02-10T09:12:43;67.17;;;33.33;;
8100;SDS011;4093;53.470;9.832;2023-02-10T09:15:11;57.77;;;29.77;;
8100;SDS011;4093;53.470;9.832;2023-02-10T09:17:39;54.90;;;28.43;;
8100;SDS011;4093;53.470;9.832;2023-02-10T09:20:07;56.73;;;29.73;;
8100;SDS011;4093;53.470;9.832;2023-02-10T09:22:36;51.77;;;28.60;;
8100;SDS011;4093;53.470;9.832;2023-02-10T09:25:05;57.33;;;28.73;;
8100;SDS011;4093;53.470;9.832;2023-02-10T09:27:33;60.43;;;29.13;;
8100;SDS011;4093;53.470;9.832;2023-02-10T09:30:01;53.27;;;28.40;;
8100;SDS011;4093;53.470;9.832;2023-02-10T09:32:29;58.53;;;27.17;;
8100;SDS011;4093;53.470;9.832;2023-02-10T09:34:56;54.87;;;27.63;;
8100;SDS011;4093;53.470;9.832;2023-02-10T09:37:24;59.27;;;30.57;;
8100;SDS011;4093;53.470;9.832;2023-02-10T09:39:52;51.33;;;27.23;;
8100;SDS011;4093;53.470;9.832;2023-02-10T09:42:24;55.60;;;28.30;;
8100;SDS011;4093;53.470;9.832;2023-02-10T09:44:59;51.63;;;28.63;;
8100;SDS011;4093;53.470;9.832;2023-02-10T09:47:35;48.03;;;28.03;;
8100;SDS011;4093;53.470;9.832;2023-02-10T09:50:21;59.03;;;29.87;;
8100;SDS011;4093;53.470;9.832;2023-02-10T09:53:09;49.77;;;27.07;;
8100;SDS011;4093;53.470;9.832;2023-02-10T09:55:41;60.40;;;32.70;;
8100;SDS011;4093;53.470;9.832;2023-02-10T09:58:15;64.10;;;31.03;;
8100;SDS011;4093;53.470;9.832;2023-02-10T10:00:47;64.37;;;33.67;;
8100;SDS011;4093;53.470;9.832;2023-02-10T10:03:19;89.67;;;44.63;;
8100;SDS011;4093;53.470;9.832;2023-02-10T10:05:54;73.80;;;34.60;;
8100;SDS011;4093;53.470;9.832;2023-02-10T10:08:27;64.13;;;32.07;;
8100;SDS011;4093;53.470;9.832;2023-02-10T10:11:01;51.57;;;28.37;;
8100;SDS011;4093;53.470;9.832;2023-02-10T10:13:35;46.20;;;27.07;;
8100;SDS011;4093;53.470;9.832;2023-02-10T10:16:07;54.07;;;28.50;;
8100;SDS011;4093;53.470;9.832;2023-02-10T10:18:47;55.40;;;27.50;;
8100;SDS011;4093;53.470;9.832;2023-02-10T10:21:26;54.80;;;31.13;;
8100;SDS011;4093;53.470;9.832;2023-02-10T10:24:07;53.60;;;27.73;;
8100;SDS011;4093;53.470;9.832;2023-02-10T10:26:54;46.83;;;27.27;;
8100;SDS011;4093;53.470;9.832;2023-02-10T10:29:38;49.17;;;26.80;;
8100;SDS011;4093;53.470;9.832;2023-02-10T10:32:13;51.97;;;26.97;;
8100;SDS011;4093;53.470;9.832;2023-02-10T10:34:45;43.13;;;25.50;;
8100;SDS011;4093;53.470;9.832;2023-02-10T10:37:18;44.97;;;25.03;;
8100;SDS011;4093;53.470;9.832;2023-02-10T10:39:49;47.03;;;23.97;;
8100;SDS011;4093;53.470;9.832;2023-02-10T10:42:21;48.60;;;24.30;;
8100;SDS011;4093;53.470;9.832;2023-02-10T10:44:54;41.83;;;23.60;;
8100;SDS011;4093;53.470;9.832;2023-02-10T10:47:29;39.43;;;22.57;;
8100;SDS011;4093;53.470;9.832;2023-02-10T10:50:04;38.33;;;23.33;;
8100;SDS011;4093;53.470;9.832;2023-02-10T10:52:33;39.87;;;21.67;;
8100;SDS011;4093;53.470;9.832;2023-02-10T10:55:06;40.90;;;21.50;;
8100;SDS011;4093;53.470;9.832;2023-02-10T10:57:39;40.33;;;20.87;;
8100;SDS011;4093;53.470;9.832;2023-02-10T11:00:15;36.97;;;21.00;;
8100;SDS011;4093;53.470;9.832;2023-02-10T11:02:51;41.50;;;20.50;;
8100;SDS011;4093;53.470;9.832;2023-02-10T11:05:20;34.57;;;17.83;;
8100;SDS011;4093;53.470;9.832;2023-02-10T11:07:50;31.10;;;18.67;;
8100;SDS011;4093;53.470;9.832;2023-02-10T11:10:21;29.70;;;17.90;;
8100;SDS011;4093;53.470;9.832;2023-02-10T11:12:53;32.20;;;18.10;;
8100;SDS011;4093;53.470;9.832;2023-02-10T11:15:32;29.67;;;16.87;;
8100;SDS011;4093;53.470;9.832;2023-02-10T11:18:05;31.90;;;17.40;;
8100;SDS011;4093;53.470;9.832;2023-02-10T11:20:40;39.47;;;17.50;;
8100;SDS011;4093;53.470;9.832;2023-02-10T11:23:12;31.37;;;15.50;;
8100;SDS011;4093;53.470;9.832;2023-02-10T11:25:41;27.00;;;15.37;;
8100;SDS011;4093;53.470;9.832;2023-02-10T11:28:17;24.93;;;14.60;;
8100;SDS011;4093;53.470;9.832;2023-02-10T11:30:53;27.87;;;15.03;;
8100;SDS011;4093;53.470;9.832;2023-02-10T11:33:24;26.67;;;14.47;;
8100;SDS011;4093;53.470;9.832;2023-02-10T11:35:59;31.40;;;14.37;;
8100;SDS011;4093;53.470;9.832;2023-02-10T11:38:30;29.57;;;14.47;;
8100;SDS011;4093;53.470;9.832;2023-02-10T11:41:00;24.23;;;14.13;;
8100;SDS011;4093;53.470;9.832;2023-02-10T11:43:31;25.73;;;14.17;;
8100;SDS011;4093;53.470;9.832;2023-02-10T11:46:06;28.47;;;13.93;;
8100;SDS011;4093;53.470;9.832;2023-02-10T11:48:36;25.90;;;14.63;;
8100;SDS011;4093;53.470;9.832;2023-02-10T11:51:05;28.10;;;14.50;;
8100;SDS011;4093;53.470;9.832;2023-02-10T11:53:40;24.33;;;13.10;;
8100;SDS011;4093;53.470;9.832;2023-02-10T11:56:13;26.50;;;13.10;;
8100;SDS011;4093;53.470;9.832;2023-02-10T11:58:52;22.47;;;13.17;;
8100;SDS011;4093;53.470;9.832;2023-02-10T12:04:29;24.90;;;12.87;;
8100;SDS011;4093;53.470;9.832;2023-02-10T12:07:05;31.77;;;14.20;;
8100;SDS011;4093;53.470;9.832;2023-02-10T12:09:43;23.20;;;12.50;;
8100;SDS011;4093;53.470;9.832;2023-02-10T12:12:22;21.73;;;12.47;;
8100;SDS011;4093;53.470;9.832;2023-02-10T12:14:59;28.37;;;13.57;;
8100;SDS011;4093;53.470;9.832;2023-02-10T12:17:38;25.57;;;12.23;;
8100;SDS011;4093;53.470;9.832;2023-02-10T12:20:17;25.00;;;12.07;;
8100;SDS011;4093;53.470;9.832;2023-02-10T12:23:07;18.97;;;10.77;;
8100;SDS011;4093;53.470;9.832;2023-02-10T12:25:52;20.47;;;11.80;;
8100;SDS011;4093;53.470;9.832;2023-02-10T12:28:37;21.03;;;11.13;;
8100;SDS011;4093;53.470;9.832;2023-02-10T12:31:18;25.10;;;11.43;;
8100;SDS011;4093;53.470;9.832;2023-02-10T12:34:04;20.57;;;10.90;;
8100;SDS011;4093;53.470;9.832;2023-02-10T12:36:46;21.43;;;10.73;;
8100;SDS011;4093;53.470;9.832;2023-02-10T12:39:21;25.70;;;11.77;;
8100;SDS011;4093;53.470;9.832;2023-02-10T12:41:54;18.47;;;11.57;;
8100;SDS011;4093;53.470;9.832;2023-02-10T12:44:38;28.43;;;13.53;;
8100;SDS011;4093;53.470;9.832;2023-02-10T12:47:18;22.80;;;11.63;;
8100;SDS011;4093;53.470;9.832;2023-02-10T12:50:01;25.73;;;11.77;;
8100;SDS011;4093;53.470;9.832;2023-02-10T12:52:44;24.30;;;11.40;;
8100;SDS011;4093;53.470;9.832;2023-02-10T12:55:21;20.17;;;10.67;;
8100;SDS011;4093;53.470;9.832;2023-02-10T12:57:53;19.20;;;9.60;;
8100;SDS011;4093;53.470;9.832;2023-02-10T13:00:27;19.60;;;10.40;;
8100;SDS011;4093;53.470;9.832;2023-02-10T13:03:00;24.40;;;10.77;;
8100;SDS011;4093;53.470;9.832;2023-02-10T13:05:37;24.67;;;11.20;;
8100;SDS011;4093;53.470;9.832;2023-02-10T13:08:12;25.37;;;10.50;;
8100;SDS011;4093;53.470;9.832;2023-02-10T13:10:45;22.40;;;10.20;;
8100;SDS011;4093;53.470;9.832;2023-02-10T13:13:16;21.20;;;10.87;;
8100;SDS011;4093;53.470;9.832;2023-02-10T13:15:48;19.10;;;10.70;;
8100;SDS011;4093;53.470;9.832;2023-02-10T13:18:22;16.73;;;10.17;;
8100;SDS011;4093;53.470;9.832;2023-02-10T13:20:58;22.20;;;9.63;;
8100;SDS011;4093;53.470;9.832;2023-02-10T13:23:35;26.33;;;10.60;;
8100;SDS011;4093;53.470;9.832;2023-02-10T13:26:17;19.80;;;9.93;;
8100;SDS011;4093;53.470;9.832;2023-02-10T13:29:01;22.50;;;10.83;;
8100;SDS011;4093;53.470;9.832;2023-02-10T13:31:50;16.00;;;10.73;;
8100;SDS011;4093;53.470;9.832;2023-02-10T13:34:30;14.60;;;10.00;;
8100;SDS011;4093;53.470;9.832;2023-02-10T13:37:05;19.10;;;10.43;;
8100;SDS011;4093;53.470;9.832;2023-02-10T13:39:36;27.53;;;11.13;;
8100;SDS011;4093;53.470;9.832;2023-02-10T13:42:13;18.10;;;10.20;;
8100;SDS011;4093;53.470;9.832;2023-02-10T13:44:45;21.77;;;10.90;;
8100;SDS011;4093;53.470;9.832;2023-02-10T13:47:25;24.60;;;11.63;;
8100;SDS011;4093;53.470;9.832;2023-02-10T13:49:57;22.73;;;11.50;;
8100;SDS011;4093;53.470;9.832;2023-02-10T13:52:30;20.30;;;10.53;;
8100;SDS011;4093;53.470;9.832;2023-02-10T13:55:03;21.17;;;10.57;;
8100;SDS011;4093;53.470;9.832;2023-02-10T13:57:52;20.77;;;10.70;;
8100;SDS011;4093;53.470;9.832;2023-02-10T14:00:23;20.00;;;11.40;;
8100;SDS011;4093;53.470;9.832;2023-02-10T14:03:02;20.90;;;11.47;;
8100;SDS011;4093;53.470;9.832;2023-02-10T14:05:51;23.43;;;11.23;;
8100;SDS011;4093;53.470;9.832;2023-02-10T14:08:29;19.90;;;11.10;;
8100;SDS011;4093;53.470;9.832;2023-02-10T14:11:29;24.10;;;12.10;;
8100;SDS011;4093;53.470;9.832;2023-02-10T14:14:16;19.87;;;11.67;;
8100;SDS011;4093;53.470;9.832;2023-02-10T14:16:47;23.13;;;13.50;;
8100;SDS011;4093;53.470;9.832;2023-02-10T14:19:21;20.13;;;12.10;;
8100;SDS011;4093;53.470;9.832;2023-02-10T14:21:55;25.13;;;12.17;;
8100;SDS011;4093;53.470;9.832;2023-02-10T14:24:26;20.93;;;11.77;;
8100;SDS011;4093;53.470;9.832;2023-02-10T14:27:15;18.73;;;11.17;;
8100;SDS011;4093;53.470;9.832;2023-02-10T14:29:48;19.67;;;12.30;;
8100;SDS011;4093;53.470;9.832;2023-02-10T14:32:19;23.60;;;12.67;;
8100;SDS011;4093;53.470;9.832;2023-02-10T14:34:54;24.37;;;13.77;;
8100;SDS011;4093;53.470;9.832;2023-02-10T14:37:23;21.10;;;12.70;;
8100;SDS011;4093;53.470;9.832;2023-02-10T14:39:54;18.90;;;12.30;;
8100;SDS011;4093;53.470;9.832;2023-02-10T14:42:23;19.67;;;11.53;;
8100;SDS011;4093;53.470;9.832;2023-02-10T14:44:54;22.63;;;11.20;;
8100;SDS011;4093;53.470;9.832;2023-02-10T14:47:24;19.77;;;11.03;;
8100;SDS011;4093;53.470;9.832;2023-02-10T14:49:56;20.10;;;11.63;;
8100;SDS011;4093;53.470;9.832;2023-02-10T14:52:25;21.77;;;11.27;;
8100;SDS011;4093;53.470;9.832;2023-02-10T14:57:51;20.80;;;12.20;;
8100;SDS011;4093;53.470;9.832;2023-02-10T15:00:22;24.53;;;11.13;;
8100;SDS011;4093;53.470;9.832;2023-02-10T15:02:52;19.50;;;11.77;;
8100;SDS011;4093;53.470;9.832;2023-02-10T15:05:24;28.13;;;12.07;;
8100;SDS011;4093;53.470;9.832;2023-02-10T15:07:57;18.10;;;11.23;;
8100;SDS011;4093;53.470;9.832;2023-02-10T15:10:29;20.87;;;11.57;;
8100;SDS011;4093;53.470;9.832;2023-02-10T15:13:00;20.93;;;11.13;;
8100;SDS011;4093;53.470;9.832;2023-02-10T15:15:31;17.83;;;11.23;;
8100;SDS011;4093;53.470;9.832;2023-02-10T15:18:00;20.97;;;11.77;;
8100;SDS011;4093;53.470;9.832;2023-02-10T15:20:33;19.33;;;11.90;;